Time;durP1;ratioP1;P1;durP2;ratioP2;P2;SDS_P1;SDS_P2;PMS_P1;PMS_P2;Temp;Humidity;BMP_temperature;BMP_pressure;BME280_temperature;BME280_humidity;BME280_pressure;Samples;Min_cycle;Max_cycle;Signal;HPM_P1;HPM_P2
2022/09/24 00:00:51;;;;;;;7.90;5.97;;;;;;;;;;5097122;28;20172;-80
2022/09/24 00:03:59;;;;;;;8.40;6.20;;;;;;;;;;5073968;28;20187;-80
2022/09/24 00:07:03;;;;;;;8.77;5.97;;;;;;;;;;5098907;28;20187;-80
2022/09/24 00:10:07;;;;;;;8.13;6.17;;;;;;;;;;5102004;28;20507;-80
2022/09/24 00:13:15;;;;;;;8.90;6.80;;;;;;;;;;5101628;28;20214;-80
2022/09/24 00:16:21;;;;;;;9.97;6.53;;;;;;;;;;5101142;28;20174;-80
2022/09/24 00:19:25;;;;;;;8.80;6.47;;;;;;;;;;5100926;28;20543;-80
2022/09/24 00:22:31;;;;;;;8.03;6.60;;;;;;;;;;5100752;28;20678;-80
2022/09/24 00:29:12;;;;;;;12.30;7.13;;;;;;;;;;5088817;28;20175;-80
2022/09/24 00:32:16;;;;;;;9.00;6.13;;;;;;;;;;5089030;28;20214;-80
2022/09/24 00:35:24;;;;;;;9.50;5.87;;;;;;;;;;5101192;28;20517;-80
2022/09/24 00:38:30;;;;;;;9.13;7.10;;;;;;;;;;5101280;28;20207;-80
2022/09/24 00:41:36;;;;;;;9.37;6.77;;;;;;;;;;5100829;28;20218;-80
2022/09/24 00:44:43;;;;;;;7.50;6.07;;;;;;;;;;5088749;28;20178;-80
2022/09/24 00:47:48;;;;;;;7.60;6.53;;;;;;;;;;5101459;28;20179;-80
2022/09/24 00:50:53;;;;;;;8.90;6.73;;;;;;;;;;5088698;28;20175;-80
2022/09/24 00:54:06;;;;;;;10.13;7.10;;;;;;;;;;5100230;28;20178;-80
2022/09/24 00:57:12;;;;;;;8.10;6.67;;;;;;;;;;5076829;28;20206;-80
2022/09/24 01:00:18;;;;;;;10.70;7.23;;;;;;;;;;5076516;28;20257;-80
2022/09/24 01:03:24;;;;;;;8.50;6.90;;;;;;;;;;5088571;28;20673;-80
2022/09/24 01:06:28;;;;;;;13.07;7.47;;;;;;;;;;5099824;28;20174;-80
2022/09/24 01:09:32;;;;;;;7.03;6.17;;;;;;;;;;5099905;28;20175;-80
2022/09/24 01:12:49;;;;;;;9.83;7.30;;;;;;;;;;5087603;28;20210;-80
2022/09/24 01:16:37;;;;;;;10.53;6.30;;;;;;;;;;5087881;28;20179;-80
2022/09/24 01:19:59;;;;;;;8.30;6.90;;;;;;;;;;5100418;28;20202;-81
2022/09/24 01:23:24;;;;;;;6.90;6.10;;;;;;;;;;5099196;28;20219;-80
2022/09/24 01:26:38;;;;;;;7.80;5.97;;;;;;;;;;5076378;28;20175;-80
2022/09/24 01:29:57;;;;;;;7.37;6.00;;;;;;;;;;5100645;28;20179;-80
2022/09/24 01:33:07;;;;;;;10.43;6.10;;;;;;;;;;5099362;28;20223;-80
2022/09/24 01:36:13;;;;;;;8.20;6.23;;;;;;;;;;5099195;28;20527;-79
2022/09/24 01:39:19;;;;;;;6.60;5.90;;;;;;;;;;5086920;28;20214;-80
2022/09/24 01:42:27;;;;;;;8.43;6.13;;;;;;;;;;5098906;28;20690;-80
2022/09/24 01:45:33;;;;;;;8.57;6.23;;;;;;;;;;5087122;28;20190;-80
2022/09/24 01:48:39;;;;;;;6.97;5.77;;;;;;;;;;5099174;28;20179;-80
2022/09/24 01:51:50;;;;;;;7.60;6.17;;;;;;;;;;5087279;28;20214;-80
2022/09/24 01:54:56;;;;;;;8.17;5.77;;;;;;;;;;5087392;28;20179;-80
2022/09/24 01:58:07;;;;;;;9.67;5.60;;;;;;;;;;5100225;28;20178;-80
2022/09/24 02:01:19;;;;;;;8.43;6.17;;;;;;;;;;5099424;28;20179;-80
2022/09/24 02:04:26;;;;;;;9.53;6.13;;;;;;;;;;5098268;28;20179;-80
2022/09/24 02:07:48;;;;;;;8.83;6.63;;;;;;;;;;5098129;28;20174;-80
2022/09/24 02:11:02;;;;;;;7.33;6.40;;;;;;;;;;5099662;28;20634;-80
2022/09/24 02:14:13;;;;;;;9.23;7.43;;;;;;;;;;5087023;28;20186;-80
2022/09/24 02:17:17;;;;;;;7.97;6.87;;;;;;;;;;5098823;28;20179;-80
2022/09/24 02:20:24;;;;;;;9.73;6.90;;;;;;;;;;5098724;28;20210;-80
2022/09/24 02:23:32;;;;;;;10.40;6.97;;;;;;;;;;5097709;28;20214;-80
2022/09/24 02:26:36;;;;;;;6.93;6.23;;;;;;;;;;5098331;28;20179;-80
2022/09/24 02:29:40;;;;;;;6.97;6.27;;;;;;;;;;5097896;28;20179;-80
2022/09/24 02:32:45;;;;;;;10.97;7.00;;;;;;;;;;5098120;28;20535;-80
2022/09/24 02:35:51;;;;;;;7.13;6.23;;;;;;;;;;5086767;28;20178;-80
2022/09/24 02:38:55;;;;;;;7.40;6.70;;;;;;;;;;5086365;28;20179;-80
2022/09/24 02:41:59;;;;;;;10.80;7.30;;;;;;;;;;5097975;28;20218;-80
2022/09/24 02:45:04;;;;;;;7.00;6.10;;;;;;;;;;5075435;28;20630;-80
2022/09/24 02:48:08;;;;;;;8.00;6.70;;;;;;;;;;5097643;28;20520;-80
2022/09/24 02:51:13;;;;;;;8.80;6.33;;;;;;;;;;5086125;28;20622;-80
2022/09/24 02:54:17;;;;;;;12.13;7.37;;;;;;;;;;5098382;28;20523;-79
2022/09/24 02:57:21;;;;;;;9.13;6.63;;;;;;;;;;5086314;28;20198;-80
2022/09/24 03:00:25;;;;;;;10.27;7.17;;;;;;;;;;5098249;28;20206;-80
2022/09/24 03:03:29;;;;;;;9.70;6.83;;;;;;;;;;5086228;28;20218;-80
2022/09/24 03:06:34;;;;;;;9.03;6.43;;;;;;;;;;5098076;28;20179;-79
2022/09/24 03:09:38;;;;;;;8.90;6.80;;;;;;;;;;5075025;28;20175;-80
2022/09/24 03:12:42;;;;;;;10.17;6.43;;;;;;;;;;5108792;28;20669;-80
2022/09/24 03:15:47;;;;;;;9.37;7.00;;;;;;;;;;5074751;28;20182;-79
2022/09/24 03:18:51;;;;;;;8.37;7.00;;;;;;;;;;5085569;28;20182;-80
2022/09/24 03:21:55;;;;;;;10.93;6.87;;;;;;;;;;5097656;28;20210;-80
2022/09/24 03:25:01;;;;;;;7.90;7.07;;;;;;;;;;5096777;28;20195;-80
2022/09/24 03:28:05;;;;;;;10.17;6.93;;;;;;;;;;5097945;28;20202;-80
2022/09/24 03:31:09;;;;;;;7.83;7.03;;;;;;;;;;5085424;28;20167;-80
2022/09/24 03:34:13;;;;;;;10.37;7.20;;;;;;;;;;5085862;28;20541;-80
2022/09/24 03:37:18;;;;;;;7.77;6.80;;;;;;;;;;5097731;28;20194;-80
2022/09/24 03:40:22;;;;;;;9.13;7.00;;;;;;;;;;5085356;28;20222;-80
2022/09/24 03:43:27;;;;;;;8.43;7.27;;;;;;;;;;5101217;28;20214;-79
2022/09/24 03:46:31;;;;;;;13.30;7.23;;;;;;;;;;5101423;28;20199;-80
2022/09/24 03:49:35;;;;;;;10.10;7.63;;;;;;;;;;5100621;28;20198;-80
2022/09/24 03:52:39;;;;;;;10.70;7.50;;;;;;;;;;5100390;28;20214;-79
2022/09/24 03:55:51;;;;;;;10.03;7.60;;;;;;;;;;5100551;28;20669;-79
2022/09/24 03:58:55;;;;;;;10.23;7.30;;;;;;;;;;5102366;28;20515;-79
2022/09/24 04:02:00;;;;;;;8.43;7.07;;;;;;;;;;5077822;28;20211;-80
2022/09/24 04:05:04;;;;;;;8.90;7.30;;;;;;;;;;5100929;28;20179;-80
2022/09/24 04:08:09;;;;;;;10.27;7.50;;;;;;;;;;5101716;28;20187;-80
2022/09/24 04:11:13;;;;;;;8.93;6.80;;;;;;;;;;5100514;28;20618;-79
2022/09/24 04:14:18;;;;;;;8.73;6.50;;;;;;;;;;5100317;28;20175;-80
2022/09/24 04:17:22;;;;;;;8.63;7.20;;;;;;;;;;5089275;28;20175;-80
2022/09/24 04:20:28;;;;;;;9.60;7.13;;;;;;;;;;5099909;28;20230;-80
2022/09/24 04:23:32;;;;;;;8.97;7.87;;;;;;;;;;5099972;28;20214;-80
2022/09/24 04:26:36;;;;;;;10.77;7.87;;;;;;;;;;5101422;28;20179;-79
2022/09/24 04:29:40;;;;;;;13.13;7.67;;;;;;;;;;5099617;28;20179;-80
2022/09/24 04:32:45;;;;;;;8.57;7.30;;;;;;;;;;5099627;28;20218;-79
2022/09/24 04:35:49;;;;;;;11.33;7.90;;;;;;;;;;5101040;28;20178;-80
2022/09/24 04:38:53;;;;;;;11.57;7.60;;;;;;;;;;5099912;28;20179;-80
2022/09/24 04:41:57;;;;;;;11.07;7.40;;;;;;;;;;5099858;28;20206;-80
2022/09/24 04:45:02;;;;;;;11.13;6.83;;;;;;;;;;5100076;28;20618;-80
2022/09/24 04:48:06;;;;;;;11.93;7.13;;;;;;;;;;5088097;28;20198;-80
2022/09/24 04:51:10;;;;;;;10.40;6.40;;;;;;;;;;5098047;28;20198;-82
2022/09/24 04:54:14;;;;;;;8.47;6.70;;;;;;;;;;5074071;28;20183;-80
2022/09/24 04:57:19;;;;;;;10.27;7.10;;;;;;;;;;5100048;28;20199;-80
2022/09/24 05:00:24;;;;;;;8.73;6.77;;;;;;;;;;5099712;28;20207;-80
2022/09/24 05:03:28;;;;;;;9.43;6.73;;;;;;;;;;5088047;28;20218;-80
2022/09/24 05:06:33;;;;;;;9.53;6.90;;;;;;;;;;5100565;28;20556;-80
2022/09/24 05:09:37;;;;;;;19.17;8.00;;;;;;;;;;5087743;28;20199;-80
2022/09/24 05:12:41;;;;;;;15.60;7.83;;;;;;;;;;5088320;28;20206;-80
2022/09/24 05:15:45;;;;;;;10.20;8.17;;;;;;;;;;5087985;28;20186;-80
2022/09/24 05:18:50;;;;;;;30.73;9.43;;;;;;;;;;5076841;28;20179;-80
2022/09/24 05:21:54;;;;;;;20.63;8.87;;;;;;;;;;5099458;28;20226;-80
2022/09/24 05:24:58;;;;;;;20.20;9.90;;;;;;;;;;5087821;28;20183;-80
2022/09/24 05:28:03;;;;;;;24.03;8.10;;;;;;;;;;5099677;28;20175;-80
2022/09/24 05:31:08;;;;;;;15.23;7.87;;;;;;;;;;5076136;28;20175;-80
2022/09/24 05:34:13;;;;;;;13.83;7.63;;;;;;;;;;5087304;28;20629;-80
2022/09/24 05:37:17;;;;;;;11.17;7.17;;;;;;;;;;5099052;28;20198;-80
2022/09/24 05:43:44;;;;;;;11.10;7.27;;;;;;;;;;5100560;28;20179;-80
2022/09/24 05:46:49;;;;;;;12.23;7.60;;;;;;;;;;5089489;28;20179;-80
2022/09/24 05:49:53;;;;;;;9.03;7.40;;;;;;;;;;5088270;28;20183;-80
2022/09/24 05:52:58;;;;;;;7.53;6.73;;;;;;;;;;5088157;28;20218;-81
2022/09/24 05:56:02;;;;;;;11.50;7.33;;;;;;;;;;5087956;28;20194;-80
2022/09/24 05:59:06;;;;;;;9.07;7.80;;;;;;;;;;5076254;28;20658;-80
2022/09/24 06:02:12;;;;;;;14.37;7.17;;;;;;;;;;5099047;28;20222;-80
2022/09/24 06:05:16;;;;;;;8.57;7.67;;;;;;;;;;5087352;28;20175;-80
2022/09/24 06:08:21;;;;;;;20.70;8.07;;;;;;;;;;5099409;28;20170;-81
2022/09/24 06:11:31;;;;;;;18.57;8.50;;;;;;;;;;5087816;28;20195;-81
2022/09/24 06:14:36;;;;;;;14.23;8.37;;;;;;;;;;5075456;28;20183;-79
2022/09/24 06:17:40;;;;;;;22.00;10.80;;;;;;;;;;5098898;28;20174;-81
2022/09/24 06:20:45;;;;;;;19.37;10.87;;;;;;;;;;5110815;28;20637;-80
2022/09/24 06:23:50;;;;;;;38.90;14.77;;;;;;;;;;5099630;28;20665;-80
2022/09/24 06:26:54;;;;;;;25.50;13.13;;;;;;;;;;5087153;28;20186;-80
2022/09/24 06:29:58;;;;;;;23.10;10.47;;;;;;;;;;5099695;28;20190;-80
2022/09/24 06:33:08;;;;;;;30.67;10.87;;;;;;;;;;5086749;28;20581;-79
2022/09/24 06:36:13;;;;;;;16.80;8.83;;;;;;;;;;5098264;28;20244;-80
2022/09/24 06:39:17;;;;;;;14.07;9.13;;;;;;;;;;5097162;28;20178;-80
2022/09/24 06:42:21;;;;;;;14.20;9.03;;;;;;;;;;5085829;28;20237;-81
2022/09/24 06:45:25;;;;;;;15.50;9.17;;;;;;;;;;5085882;28;20186;-80
2022/09/24 06:48:30;;;;;;;16.57;8.23;;;;;;;;;;5097686;28;20184;-79
2022/09/24 06:51:34;;;;;;;10.27;7.97;;;;;;;;;;5097965;28;20210;-79
2022/09/24 06:54:39;;;;;;;7.93;7.13;;;;;;;;;;5108689;28;20175;-79
2022/09/24 06:57:42;;;;;;;9.23;7.07;;;;;;;;;;5098747;28;20603;-80
2022/09/24 07:00:57;;;;;;;14.73;8.10;;;;;;;;;;5097582;28;20207;-80
2022/09/24 07:04:02;;;;;;;17.10;7.77;;;;;;;;;;5085532;28;20175;-80
2022/09/24 07:10:30;;;;;;;14.20;7.50;;;;;;;;;;5097108;28;20182;-80
2022/09/24 07:13:34;;;;;;;15.07;7.37;;;;;;;;;;5097552;28;20218;-80
2022/09/24 07:16:38;;;;;;;17.27;8.90;;;;;;;;;;5100285;28;20240;-80
2022/09/24 07:19:42;;;;;;;10.53;7.70;;;;;;;;;;5101303;28;20178;-80
2022/09/24 07:22:46;;;;;;;14.23;7.50;;;;;;;;;;5102059;28;20210;-81
2022/09/24 07:25:55;;;;;;;10.50;7.27;;;;;;;;;;5112393;28;20201;-80
2022/09/24 07:28:59;;;;;;;17.13;7.77;;;;;;;;;;5089055;28;20206;-80
2022/09/24 07:32:04;;;;;;;11.13;8.10;;;;;;;;;;5089465;28;20213;-80
2022/09/24 07:35:08;;;;;;;16.17;8.27;;;;;;;;;;5089630;28;20179;-80
2022/09/24 07:38:13;;;;;;;19.33;7.97;;;;;;;;;;5089502;28;20191;-80
2022/09/24 07:41:17;;;;;;;11.17;7.60;;;;;;;;;;5101976;28;20210;-82
2022/09/24 07:44:22;;;;;;;17.77;8.63;;;;;;;;;;5089549;28;20186;-80
2022/09/24 07:47:25;;;;;;;23.87;9.50;;;;;;;;;;5101514;28;20186;-80
2022/09/24 07:50:37;;;;;;;17.87;8.17;;;;;;;;;;5088708;28;20538;-80
2022/09/24 07:53:42;;;;;;;15.97;8.40;;;;;;;;;;5101416;28;20183;-80
2022/09/24 07:56:46;;;;;;;12.93;7.90;;;;;;;;;;5088691;28;20205;-80
2022/09/24 07:59:50;;;;;;;10.67;7.37;;;;;;;;;;5088375;28;20180;-80
2022/09/24 08:02:55;;;;;;;12.57;8.33;;;;;;;;;;5100002;28;20211;-81
2022/09/24 08:06:00;;;;;;;12.97;8.47;;;;;;;;;;5078075;28;20205;-81
2022/09/24 08:09:05;;;;;;;11.63;7.87;;;;;;;;;;5101877;28;20198;-81
2022/09/24 08:12:11;;;;;;;11.37;9.20;;;;;;;;;;5078638;28;20221;-83
2022/09/24 08:15:18;;;;;;;14.10;8.37;;;;;;;;;;5077204;28;20183;-79
2022/09/24 08:18:23;;;;;;;24.50;15.87;;;;;;;;;;5099373;28;20184;-79
2022/09/24 08:21:27;;;;;;;19.20;11.20;;;;;;;;;;5087560;28;20217;-80
2022/09/24 08:24:32;;;;;;;10.13;7.87;;;;;;;;;;5099444;28;20190;-79
2022/09/24 08:27:36;;;;;;;10.43;7.83;;;;;;;;;;5087497;28;20179;-79
2022/09/24 08:30:40;;;;;;;9.53;7.93;;;;;;;;;;5076093;28;20181;-80
2022/09/24 08:33:45;;;;;;;9.73;8.47;;;;;;;;;;5099290;28;20179;-80
2022/09/24 08:36:49;;;;;;;10.70;8.37;;;;;;;;;;5087743;28;20179;-80
2022/09/24 08:39:53;;;;;;;13.10;9.83;;;;;;;;;;5089011;28;20645;-81
2022/09/24 08:43:18;;;;;;;9.27;8.30;;;;;;;;;;5088072;28;20241;-79
2022/09/24 08:50:16;;;;;;;13.23;8.33;;;;;;;;;;5098149;28;20558;-80
2022/09/24 08:53:23;;;;;;;9.13;7.70;;;;;;;;;;5086459;28;20221;-78
2022/09/24 08:56:32;;;;;;;10.70;8.13;;;;;;;;;;5110322;28;20198;-80
2022/09/24 08:59:42;;;;;;;14.83;9.23;;;;;;;;;;5109456;28;20194;-80
2022/09/24 09:03:00;;;;;;;11.03;9.07;;;;;;;;;;5098738;28;20249;-80
2022/09/24 09:06:13;;;;;;;14.57;12.43;;;;;;;;;;5097611;28;20194;-79
2022/09/24 09:09:21;;;;;;;11.27;10.07;;;;;;;;;;5097541;28;20689;-80
2022/09/24 09:12:33;;;;;;;12.83;9.17;;;;;;;;;;5085749;28;20260;-80
2022/09/24 09:16:05;;;;;;;8.13;7.33;;;;;;;;;;5085538;28;20186;-79
2022/09/24 09:19:14;;;;;;;11.67;7.00;;;;;;;;;;5099145;28;20178;-80
2022/09/24 09:22:22;;;;;;;10.13;6.30;;;;;;;;;;5097383;28;20227;-80
2022/09/24 09:25:32;;;;;;;9.37;8.47;;;;;;;;;;5081814;28;20187;-80
2022/09/24 09:28:36;;;;;;;11.60;10.23;;;;;;;;;;5065037;28;20250;-81
2022/09/24 09:32:25;;;;;;;10.17;8.33;;;;;;;;;;5078059;28;20222;-81
2022/09/24 09:35:58;;;;;;;9.17;7.30;;;;;;;;;;5054530;28;20207;-81
2022/09/24 09:39:21;;;;;;;7.20;6.37;;;;;;;;;;5075904;28;20465;-80
2022/09/24 09:42:39;;;;;;;20.53;15.53;;;;;;;;;;5077082;28;20216;-81
2022/09/24 09:46:09;;;;;;;24.80;19.53;;;;;;;;;;5077527;28;20187;-81
2022/09/24 09:49:15;;;;;;;29.20;23.40;;;;;;;;;;5077560;28;20191;-81
2022/09/24 09:52:23;;;;;;;24.83;20.63;;;;;;;;;;5074901;28;20222;-81
2022/09/24 09:55:34;;;;;;;12.57;10.40;;;;;;;;;;5078515;28;20585;-82
2022/09/24 09:58:46;;;;;;;8.87;7.97;;;;;;;;;;5079818;28;20621;-81
2022/09/24 10:01:55;;;;;;;8.40;7.03;;;;;;;;;;5055891;28;20227;-81
2022/09/24 10:05:04;;;;;;;9.70;8.27;;;;;;;;;;5091684;28;20179;-82
2022/09/24 10:08:20;;;;;;;30.67;24.87;;;;;;;;;;5078943;28;20191;-81
2022/09/24 10:11:24;;;;;;;22.67;17.90;;;;;;;;;;5078393;28;20535;-84
2022/09/24 10:14:28;;;;;;;16.33;12.23;;;;;;;;;;5057134;28;20194;-80
2022/09/24 10:17:36;;;;;;;13.30;10.20;;;;;;;;;;5070167;28;20190;-82
2022/09/24 10:20:47;;;;;;;11.43;8.13;;;;;;;;;;5107122;28;20584;-81
2022/09/24 10:23:51;;;;;;;12.67;8.03;;;;;;;;;;5079786;28;20198;-82
2022/09/24 10:26:56;;;;;;;8.33;7.33;;;;;;;;;;5093486;28;20182;-81
2022/09/24 10:33:39;;;;;;;12.97;7.70;;;;;;;;;;5086530;28;20222;-81
2022/09/24 10:37:11;;;;;;;11.90;8.20;;;;;;;;;;5073134;28;20570;-81
2022/09/24 10:40:22;;;;;;;9.70;8.43;;;;;;;;;;5088759;28;20192;-81
2022/09/24 10:43:26;;;;;;;12.10;8.77;;;;;;;;;;5088198;28;20574;-83
2022/09/24 10:47:06;;;;;;;10.50;9.40;;;;;;;;;;5076499;28;20541;-81
2022/09/24 10:50:42;;;;;;;13.50;9.30;;;;;;;;;;5100154;28;20180;-81
2022/09/24 10:54:20;;;;;;;13.50;9.43;;;;;;;;;;5075600;28;20654;-82
2022/09/24 10:57:38;;;;;;;10.70;9.57;;;;;;;;;;5085017;28;20201;-81
2022/09/24 11:01:02;;;;;;;12.43;9.67;;;;;;;;;;5084445;28;20183;-81
2022/09/24 11:04:28;;;;;;;10.80;9.70;;;;;;;;;;5072550;28;20188;-81
2022/09/24 11:07:43;;;;;;;12.00;9.70;;;;;;;;;;5085266;28;20526;-81
2022/09/24 11:11:17;;;;;;;10.87;9.73;;;;;;;;;;5085892;28;20186;-80
2022/09/24 11:15:00;;;;;;;13.03;11.37;;;;;;;;;;5097590;28;20190;-80
2022/09/24 11:18:36;;;;;;;12.27;10.87;;;;;;;;;;5097578;28;20657;-81
2022/09/24 11:22:13;;;;;;;13.00;11.13;;;;;;;;;;5100564;28;20226;-81
2022/09/24 11:25:38;;;;;;;18.17;13.93;;;;;;;;;;5086894;28;20645;-80
2022/09/24 11:28:51;;;;;;;14.30;12.37;;;;;;;;;;5074380;28;20649;-80
2022/09/24 11:32:31;;;;;;;17.43;12.57;;;;;;;;;;5085299;28;20692;-80
2022/09/24 11:36:03;;;;;;;14.30;11.30;;;;;;;;;;5093304;28;20661;-80
2022/09/24 11:39:28;;;;;;;12.40;10.33;;;;;;;;;;5074731;28;20182;-80
2022/09/24 11:42:44;;;;;;;14.33;11.90;;;;;;;;;;5083140;28;20221;-80
2022/09/24 11:46:13;;;;;;;14.50;11.60;;;;;;;;;;5081999;28;20194;-80
2022/09/24 11:49:47;;;;;;;12.17;10.97;;;;;;;;;;5095979;28;20189;-78
2022/09/24 11:53:09;;;;;;;14.90;10.93;;;;;;;;;;5083766;28;20225;-81
2022/09/24 11:56:23;;;;;;;15.63;11.70;;;;;;;;;;5067101;28;20213;-80
2022/09/24 11:59:35;;;;;;;13.60;11.47;;;;;;;;;;5089831;28;20196;-81
2022/09/24 12:03:00;;;;;;;12.90;11.30;;;;;;;;;;5086383;28;20230;-81
2022/09/24 12:06:23;;;;;;;12.37;11.03;;;;;;;;;;5108239;28;20206;-80
2022/09/24 12:09:41;;;;;;;13.43;11.13;;;;;;;;;;5092380;28;20194;-81
2022/09/24 12:12:48;;;;;;;14.40;11.23;;;;;;;;;;5081653;28;20237;-81
2022/09/24 12:15:52;;;;;;;13.13;11.43;;;;;;;;;;5109031;28;20202;-81
2022/09/24 12:19:27;;;;;;;12.20;10.97;;;;;;;;;;5076718;28;20189;-81
2022/09/24 12:22:34;;;;;;;12.33;11.00;;;;;;;;;;5086123;28;20229;-81
2022/09/24 12:25:46;;;;;;;15.83;11.97;;;;;;;;;;5109936;28;20207;-82
2022/09/24 12:32:54;;;;;;;12.10;10.90;;;;;;;;;;5108633;28;20577;-81
2022/09/24 12:36:18;;;;;;;13.03;11.60;;;;;;;;;;5085165;28;20589;-81
2022/09/24 12:39:27;;;;;;;12.37;11.07;;;;;;;;;;5084839;28;20182;-81
2022/09/24 12:42:55;;;;;;;12.33;11.03;;;;;;;;;;5084482;28;20230;-82
2022/09/24 12:46:05;;;;;;;12.40;11.13;;;;;;;;;;5087975;28;20198;-81
2022/09/24 12:49:26;;;;;;;13.07;11.67;;;;;;;;;;5085819;28;20198;-82
2022/09/24 12:52:37;;;;;;;11.53;10.30;;;;;;;;;;5091150;28;20217;-82
2022/09/24 12:55:44;;;;;;;14.03;10.63;;;;;;;;;;5070734;28;20206;-82
2022/09/24 12:58:48;;;;;;;13.40;10.70;;;;;;;;;;5085338;28;20193;-81
2022/09/24 13:01:53;;;;;;;13.47;10.93;;;;;;;;;;5095867;28;20225;-82
2022/09/24 13:05:00;;;;;;;12.00;10.87;;;;;;;;;;5096141;28;20202;-81
2022/09/24 13:08:18;;;;;;;12.50;11.03;;;;;;;;;;5074584;28;20193;-84
2022/09/24 13:11:35;;;;;;;14.70;11.93;;;;;;;;;;5098686;28;20206;-83
2022/09/24 13:14:46;;;;;;;13.33;11.00;;;;;;;;;;5086853;28;20186;-82
2022/09/24 13:18:20;;;;;;;14.57;12.07;;;;;;;;;;5086064;28;20182;-82
2022/09/24 13:21:27;;;;;;;12.10;10.80;;;;;;;;;;5084943;28;20549;-81
2022/09/24 13:24:45;;;;;;;13.73;11.40;;;;;;;;;;5085460;28;20192;-81
2022/09/24 13:28:01;;;;;;;13.83;10.67;;;;;;;;;;5099529;28;20649;-81
2022/09/24 13:31:21;;;;;;;14.07;11.97;;;;;;;;;;5075781;28;20194;-81
2022/09/24 13:34:27;;;;;;;15.07;12.70;;;;;;;;;;5100301;28;20182;-81
2022/09/24 13:37:37;;;;;;;16.27;13.13;;;;;;;;;;5099697;28;20652;-80
2022/09/24 13:40:49;;;;;;;14.80;13.30;;;;;;;;;;5098642;28;20620;-81
2022/09/24 13:44:03;;;;;;;14.63;13.07;;;;;;;;;;5088267;28;20213;-81
2022/09/24 13:47:17;;;;;;;14.40;12.67;;;;;;;;;;5099235;28;20190;-83
2022/09/24 13:50:26;;;;;;;16.73;13.70;;;;;;;;;;5087831;28;20190;-82
2022/09/24 13:53:49;;;;;;;14.87;13.03;;;;;;;;;;5076169;28;20716;-82
2022/09/24 13:57:08;;;;;;;13.77;12.37;;;;;;;;;;5087258;28;20198;-83
2022/09/24 14:00:15;;;;;;;17.07;14.30;;;;;;;;;;5075733;28;20198;-82
2022/09/24 14:03:31;;;;;;;17.00;15.20;;;;;;;;;;5087093;28;20719;-82
2022/09/24 14:06:36;;;;;;;19.57;16.13;;;;;;;;;;5076493;28;20186;-83
2022/09/24 14:09:43;;;;;;;15.40;13.57;;;;;;;;;;5088616;28;20182;-82
2022/09/24 14:12:58;;;;;;;16.20;13.80;;;;;;;;;;5076159;28;20217;-82
2022/09/24 14:16:09;;;;;;;19.03;14.87;;;;;;;;;;5099229;28;20249;-82
2022/09/24 14:19:14;;;;;;;17.37;13.97;;;;;;;;;;5099120;28;20184;-82
2022/09/24 14:22:25;;;;;;;14.70;12.73;;;;;;;;;;5076314;28;20221;-83
2022/09/24 14:25:34;;;;;;;13.73;12.33;;;;;;;;;;5098942;28;20206;-83
2022/09/24 14:28:38;;;;;;;14.37;11.47;;;;;;;;;;5074476;28;20186;-82
2022/09/24 14:31:48;;;;;;;12.53;11.23;;;;;;;;;;5085381;28;20217;-81
2022/09/24 14:34:56;;;;;;;12.20;10.47;;;;;;;;;;5097039;28;20178;-81
2022/09/24 14:38:08;;;;;;;15.57;11.33;;;;;;;;;;5096543;28;20193;-82
2022/09/24 14:41:17;;;;;;;13.67;11.80;;;;;;;;;;5085420;28;20202;-80
2022/09/24 14:44:27;;;;;;;13.33;11.17;;;;;;;;;;5095964;28;20213;-81
2022/09/24 14:47:34;;;;;;;14.03;10.63;;;;;;;;;;5096009;28;20554;-82
2022/09/24 14:50:40;;;;;;;15.07;11.57;;;;;;;;;;5091088;28;20185;-81
2022/09/24 14:53:44;;;;;;;15.27;12.10;;;;;;;;;;5080896;28;20681;-82
2022/09/24 14:56:48;;;;;;;14.27;11.10;;;;;;;;;;5069173;28;20209;-82
2022/09/24 14:59:52;;;;;;;14.63;10.80;;;;;;;;;;5075001;28;20294;-82
2022/09/24 15:03:11;;;;;;;11.30;10.10;;;;;;;;;;5075160;28;20590;-83
2022/09/24 15:06:20;;;;;;;12.73;11.40;;;;;;;;;;5049708;28;20199;-84
2022/09/24 15:09:30;;;;;;;11.53;10.33;;;;;;;;;;5062755;28;20186;-82
2022/09/24 15:12:36;;;;;;;13.43;11.90;;;;;;;;;;5053198;28;20218;-82
2022/09/24 15:15:41;;;;;;;13.27;11.83;;;;;;;;;;5076422;28;20562;-82
2022/09/24 15:19:15;;;;;;;13.23;11.50;;;;;;;;;;5077561;28;20202;-82
2022/09/24 15:22:25;;;;;;;13.73;11.93;;;;;;;;;;5072557;28;20218;-82
2022/09/24 15:25:29;;;;;;;13.33;11.93;;;;;;;;;;5085506;28;20657;-82
2022/09/24 15:28:33;;;;;;;13.43;11.70;;;;;;;;;;5084858;28;20178;-83
2022/09/24 15:31:37;;;;;;;13.27;11.20;;;;;;;;;;5073722;28;20218;-83
2022/09/24 15:34:42;;;;;;;14.33;12.83;;;;;;;;;;5054266;28;20183;-82
2022/09/24 15:37:48;;;;;;;14.23;12.33;;;;;;;;;;5078889;28;20191;-82
2022/09/24 15:40:52;;;;;;;15.47;12.93;;;;;;;;;;5066495;28;20199;-83
2022/09/24 15:43:57;;;;;;;15.60;13.33;;;;;;;;;;5069381;28;20218;-81
2022/09/24 15:47:01;;;;;;;17.13;14.13;;;;;;;;;;5056396;28;20198;-83
2022/09/24 15:50:06;;;;;;;15.57;13.10;;;;;;;;;;5068427;28;20182;-84
2022/09/24 15:53:20;;;;;;;16.33;14.63;;;;;;;;;;5056930;28;20218;-84
2022/09/24 15:56:24;;;;;;;18.63;15.90;;;;;;;;;;5053028;28;20210;-84
2022/09/24 15:59:29;;;;;;;16.37;13.13;;;;;;;;;;5076852;28;20658;-84
2022/09/24 16:02:33;;;;;;;16.13;14.30;;;;;;;;;;5076071;28;20704;-84
2022/09/24 16:05:38;;;;;;;14.60;12.07;;;;;;;;;;5065041;28;20186;-84
2022/09/24 16:08:42;;;;;;;14.87;13.03;;;;;;;;;;5053769;28;20558;-83
2022/09/24 16:11:46;;;;;;;21.43;14.13;;;;;;;;;;5055102;28;20222;-82
2022/09/24 16:14:50;;;;;;;17.57;15.10;;;;;;;;;;5057687;28;20515;-82
2022/09/24 16:17:54;;;;;;;16.03;14.43;;;;;;;;;;5055791;28;20187;-82
2022/09/24 16:20:58;;;;;;;16.97;14.00;;;;;;;;;;5080543;28;20199;-82
2022/09/24 16:24:03;;;;;;;20.87;15.60;;;;;;;;;;5081780;28;20214;-83
2022/09/24 16:27:07;;;;;;;17.63;15.70;;;;;;;;;;5069214;28;20194;-82
2022/09/24 16:30:11;;;;;;;20.93;15.13;;;;;;;;;;5080222;28;20198;-83
2022/09/24 16:33:16;;;;;;;19.70;15.97;;;;;;;;;;5068771;28;20586;-83
2022/09/24 16:36:22;;;;;;;18.40;15.57;;;;;;;;;;5068133;28;20183;-83
2022/09/24 16:39:27;;;;;;;17.90;15.30;;;;;;;;;;5079726;28;20191;-84
2022/09/24 16:42:32;;;;;;;22.37;16.63;;;;;;;;;;5056611;28;20218;-84
2022/09/24 16:45:37;;;;;;;21.43;15.23;;;;;;;;;;5056581;28;20183;-84
2022/09/24 16:48:43;;;;;;;41.73;21.17;;;;;;;;;;5068142;28;20186;-84
2022/09/24 16:51:47;;;;;;;28.27;18.60;;;;;;;;;;5057474;28;20697;-84
2022/09/24 16:54:51;;;;;;;33.70;18.97;;;;;;;;;;5068672;28;20198;-84
2022/09/24 16:57:55;;;;;;;23.10;16.60;;;;;;;;;;5058432;28;20179;-83
2022/09/24 17:01:03;;;;;;;22.67;17.23;;;;;;;;;;5079676;28;20187;-84
2022/09/24 17:04:08;;;;;;;20.50;17.50;;;;;;;;;;5068466;28;20210;-84
2022/09/24 17:07:12;;;;;;;18.27;15.57;;;;;;;;;;5066771;28;20186;-83
2022/09/24 17:10:17;;;;;;;18.53;15.27;;;;;;;;;;5068657;28;20186;-85
2022/09/24 17:13:22;;;;;;;20.53;16.43;;;;;;;;;;5072441;28;20602;-84
2022/09/24 17:16:26;;;;;;;17.87;15.97;;;;;;;;;;5080460;28;20187;-84
2022/09/24 17:19:31;;;;;;;17.53;15.60;;;;;;;;;;5055602;28;20182;-82
2022/09/24 17:22:36;;;;;;;18.87;16.07;;;;;;;;;;5078049;28;20696;-82
2022/09/24 17:25:40;;;;;;;17.30;15.30;;;;;;;;;;5078570;28;20242;-83
2022/09/24 17:28:46;;;;;;;19.03;16.50;;;;;;;;;;5066784;28;20182;-83
2022/09/24 17:31:50;;;;;;;18.47;16.37;;;;;;;;;;5055865;28;20218;-82
2022/09/24 17:34:54;;;;;;;17.70;15.80;;;;;;;;;;5067087;28;20186;-83
2022/09/24 17:37:57;;;;;;;18.43;15.70;;;;;;;;;;5066738;28;20265;-83
2022/09/24 17:41:05;;;;;;;18.60;14.43;;;;;;;;;;5063151;28;20210;-84
2022/09/24 17:44:11;;;;;;;17.70;15.40;;;;;;;;;;5062368;28;20207;-86
2022/09/24 17:47:15;;;;;;;18.33;14.93;;;;;;;;;;5074850;28;20645;-84
2022/09/24 17:50:19;;;;;;;16.20;14.50;;;;;;;;;;5076093;28;20637;-84
2022/09/24 17:53:24;;;;;;;19.83;14.73;;;;;;;;;;5085886;28;20221;-86
2022/09/24 17:56:31;;;;;;;20.10;15.03;;;;;;;;;;5065366;28;20210;-86
2022/09/24 17:59:35;;;;;;;17.83;14.50;;;;;;;;;;5062606;28;20661;-86
2022/09/24 18:02:39;;;;;;;16.27;14.57;;;;;;;;;;5062718;28;20221;-86
2022/09/24 18:05:43;;;;;;;17.07;14.07;;;;;;;;;;5063700;28;20214;-84
2022/09/24 18:08:47;;;;;;;16.33;13.80;;;;;;;;;;5066263;28;20554;-85
2022/09/24 18:11:52;;;;;;;20.87;17.27;;;;;;;;;;5076577;28;20225;-86
2022/09/24 18:14:56;;;;;;;19.07;16.83;;;;;;;;;;5093947;28;20197;-86
2022/09/24 18:18:00;;;;;;;21.90;18.07;;;;;;;;;;5085993;28;20194;-86
2022/09/24 18:21:07;;;;;;;20.77;17.97;;;;;;;;;;5066425;28;20193;-85
2022/09/24 18:24:13;;;;;;;20.13;16.47;;;;;;;;;;5078700;28;20311;-85
2022/09/24 18:27:17;;;;;;;21.87;16.43;;;;;;;;;;5064200;28;20182;-86
2022/09/24 18:30:23;;;;;;;16.97;15.17;;;;;;;;;;5050736;28;20187;-88
2022/09/24 18:33:26;;;;;;;18.03;15.23;;;;;;;;;;5050191;28;20221;-87
2022/09/24 18:36:33;;;;;;;22.03;17.43;;;;;;;;;;5073987;28;20191;-87
2022/09/24 18:39:37;;;;;;;18.83;16.23;;;;;;;;;;5061526;28;20206;-88
2022/09/24 18:42:41;;;;;;;20.37;15.83;;;;;;;;;;5051738;28;20229;-86
2022/09/24 18:45:45;;;;;;;19.80;16.37;;;;;;;;;;5069402;28;20221;-83
2022/09/24 18:48:52;;;;;;;21.43;17.20;;;;;;;;;;5095995;28;20186;-85
2022/09/24 18:51:56;;;;;;;19.57;16.40;;;;;;;;;;5096809;28;20225;-83